createdAt,value
2018-06-18T00:03:06.526Z,2.80
2018-06-18T00:08:01.009Z,2.50
2018-06-18T00:12:55.593Z,2.70
2018-06-18T00:17:50.192Z,2.43
2018-06-18T00:22:44.841Z,2.93
2018-06-18T00:27:39.818Z,2.43
2018-06-18T00:32:35.565Z,2.33
2018-06-18T00:37:29.852Z,2.40
2018-06-18T00:42:24.373Z,2.77
2018-06-18T00:47:19.310Z,2.87
2018-06-18T00:52:14.709Z,2.87
2018-06-18T00:57:09.899Z,2.80
2018-06-18T01:02:04.450Z,2.83
2018-06-18T01:06:59.053Z,2.60
2018-06-18T01:11:53.630Z,3.10
2018-06-18T01:16:49.048Z,3.13
2018-06-18T01:21:43.724Z,3.20
2018-06-18T01:26:38.709Z,2.90
2018-06-18T01:31:33.295Z,2.77
2018-06-18T01:36:27.914Z,2.57
2018-06-18T01:41:22.405Z,3.13
2018-06-18T01:46:17.120Z,2.53
2018-06-18T01:51:11.600Z,2.60
2018-06-18T01:56:06.876Z,2.70
2018-06-18T02:01:01.499Z,2.57
2018-06-18T02:05:56.297Z,3.00
2018-06-18T02:10:51.052Z,2.70
2018-06-18T02:15:45.580Z,2.67
2018-06-18T02:20:40.242Z,2.80
2018-06-18T02:25:35.281Z,2.60
2018-06-18T02:30:35.107Z,2.43
2018-06-18T02:36:36.426Z,2.93
2018-06-18T02:41:31.058Z,2.97
2018-06-18T02:46:25.668Z,3.10
2018-06-18T02:51:20.370Z,3.03
2018-06-18T02:56:14.914Z,3.13
2018-06-18T03:01:09.643Z,3.17
2018-06-18T03:06:04.547Z,3.30
2018-06-18T03:10:59.087Z,3.33
2018-06-18T03:15:53.538Z,3.60
2018-06-18T03:20:53.253Z,3.47
2018-06-18T03:25:52.971Z,3.53
2018-06-18T03:30:47.431Z,3.40
2018-06-18T03:35:41.901Z,3.60
2018-06-18T03:40:36.391Z,3.80
2018-06-18T03:45:33.500Z,3.23
2018-06-18T03:50:28.479Z,3.47
2018-06-18T03:55:28.084Z,3.70
2018-06-18T04:00:23.854Z,3.70
2018-06-18T04:05:24.713Z,3.83
2018-06-18T04:10:24.901Z,4.20
2018-06-18T04:15:19.494Z,4.53
2018-06-18T04:20:14.162Z,3.93
2018-06-18T04:25:08.693Z,3.63
2018-06-18T04:30:03.398Z,2.93
2018-06-18T04:35:03.108Z,3.30
2018-06-18T04:39:57.750Z,3.07
2018-06-18T04:44:57.834Z,2.97
2018-06-18T04:49:57.688Z,3.13
2018-06-18T04:54:52.362Z,3.10
2018-06-18T05:00:25.232Z,2.93
2018-06-18T05:05:19.720Z,3.40
2018-06-18T05:10:18.735Z,3.23
2018-06-18T05:15:13.728Z,3.20
2018-06-18T05:20:08.221Z,3.13
2018-06-18T05:25:02.738Z,2.87
2018-06-18T05:30:00.317Z,2.87
2018-06-18T05:34:55.260Z,2.70
2018-06-18T05:39:49.972Z,3.03
2018-06-18T05:44:44.313Z,4.23
2018-06-18T05:49:38.938Z,3.00
2018-06-18T05:54:33.432Z,2.90
2018-06-18T05:59:27.935Z,2.90
2018-06-18T06:04:25.000Z,3.30
2018-06-18T06:09:19.818Z,3.10
2018-06-18T06:14:14.381Z,3.00
2018-06-18T06:19:08.829Z,2.93
2018-06-18T06:24:03.546Z,2.60
2018-06-18T06:28:58.042Z,2.80
2018-06-18T06:33:52.671Z,2.23
2018-06-18T06:38:47.158Z,2.80
2018-06-18T06:43:41.763Z,2.93
2018-06-18T06:48:36.924Z,2.60
2018-06-18T06:53:31.640Z,2.43
2018-06-18T06:58:26.128Z,2.40
2018-06-18T07:03:21.018Z,2.63
2018-06-18T07:08:15.508Z,2.37
2018-06-18T07:13:10.068Z,2.20
2018-06-18T07:18:05.162Z,2.17
2018-06-18T07:22:59.674Z,2.10
2018-06-18T07:27:54.224Z,3.03
2018-06-18T07:32:48.710Z,3.50
2018-06-18T07:37:43.786Z,2.70
2018-06-18T07:42:38.441Z,1.90
2018-06-18T07:47:33.146Z,2.60
2018-06-18T07:52:27.635Z,2.30
2018-06-18T07:57:22.098Z,2.90
2018-06-18T08:02:16.621Z,2.60
2018-06-18T08:07:11.225Z,2.33
2018-06-18T08:12:05.792Z,2.60
2018-06-18T08:16:59.987Z,2.80
2018-06-18T08:21:54.436Z,2.53
2018-06-18T08:26:49.134Z,2.10
2018-06-18T08:31:43.790Z,2.40
2018-06-18T08:36:38.578Z,2.50
2018-06-18T08:41:33.064Z,3.00
2018-06-18T08:46:27.646Z,2.47
2018-06-18T08:51:27.414Z,2.70
2018-06-18T08:56:27.209Z,2.30
2018-06-18T09:01:24.977Z,2.60
2018-06-18T09:06:19.410Z,2.33
2018-06-18T09:11:13.882Z,2.50
2018-06-18T09:16:08.430Z,2.17
2018-06-18T09:21:03.920Z,1.70
2018-06-18T09:25:58.642Z,2.20
2018-06-18T09:30:53.818Z,1.90
2018-06-18T09:35:48.715Z,2.30
2018-06-18T09:40:43.139Z,2.10
2018-06-18T09:45:37.625Z,2.50
2018-06-18T09:50:37.701Z,2.03
2018-06-18T09:55:37.453Z,2.00
2018-06-18T10:00:53.273Z,2.00
2018-06-18T10:05:47.810Z,1.70
2018-06-18T10:10:42.569Z,1.90
2018-06-18T10:15:37.494Z,2.10
2018-06-18T10:20:32.245Z,1.83
2018-06-18T10:25:27.235Z,1.70
2018-06-18T10:30:21.925Z,1.97
2018-06-18T10:35:21.569Z,1.70
2018-06-18T10:40:21.531Z,1.60
2018-06-18T10:45:16.174Z,1.63
2018-06-18T10:50:10.647Z,1.23
2018-06-18T10:55:05.196Z,1.57
2018-06-18T10:59:59.971Z,1.40
2018-06-18T11:04:59.714Z,1.80
2018-06-18T11:09:54.578Z,1.57
2018-06-18T11:14:49.220Z,1.67
2018-06-18T11:19:49.386Z,1.80
2018-06-18T11:24:49.461Z,1.70
2018-06-18T11:29:44.245Z,1.57
2018-06-18T11:34:38.845Z,2.07
2018-06-18T11:39:33.782Z,2.23
2018-06-18T11:44:28.605Z,1.50
2018-06-18T11:49:23.042Z,1.70
2018-06-18T11:54:17.538Z,1.50
2018-06-18T11:59:17.411Z,1.47
2018-06-18T12:04:20.618Z,1.70
2018-06-18T12:09:20.700Z,1.87
2018-06-18T12:14:16.324Z,1.33
2018-06-18T12:19:11.517Z,1.40
2018-06-18T12:24:06.618Z,1.83
2018-06-18T12:29:01.616Z,1.47
2018-06-18T12:33:57.103Z,1.53
2018-06-18T12:38:52.896Z,1.43
2018-06-18T12:43:51.688Z,1.90
2018-06-18T12:48:51.375Z,1.53
2018-06-18T12:53:51.206Z,1.87
2018-06-18T12:58:47.313Z,1.40
2018-06-18T13:03:42.717Z,1.50
2018-06-18T13:08:37.937Z,1.50
2018-06-18T13:13:33.400Z,1.37
2018-06-18T13:18:28.468Z,1.50
2018-06-18T13:23:23.586Z,1.33
2018-06-18T13:28:18.465Z,1.50
2018-06-18T13:33:13.968Z,1.40
2018-06-18T13:38:14.563Z,1.80
2018-06-18T13:44:14.516Z,1.40
2018-06-18T13:49:09.660Z,1.60
2018-06-18T13:54:04.762Z,1.73
2018-06-18T13:59:00.478Z,1.63
2018-06-18T14:03:54.985Z,1.57
2018-06-18T14:08:49.967Z,1.73
2018-06-18T14:13:44.631Z,1.50
2018-06-18T14:18:40.134Z,1.47
2018-06-18T14:23:34.626Z,1.50
2018-06-18T14:28:29.354Z,2.43
2018-06-18T14:33:29.448Z,5.43
2018-06-18T14:38:29.336Z,2.20
2018-06-18T14:43:23.824Z,1.73
2018-06-18T14:48:18.274Z,3.70
2018-06-18T14:53:12.987Z,2.07
2018-06-18T14:58:07.437Z,2.10
2018-06-18T15:03:01.717Z,2.47
2018-06-18T15:07:56.443Z,2.00
2018-06-18T15:12:53.743Z,2.00
2018-06-18T15:17:48.848Z,1.80
2018-06-18T15:22:47.318Z,1.97
2018-06-18T15:27:42.658Z,1.53
2018-06-18T15:32:37.206Z,1.70
2018-06-18T15:37:32.316Z,1.60
2018-06-18T15:42:27.322Z,1.73
2018-06-18T15:47:22.095Z,1.50
2018-06-18T15:52:17.284Z,1.53
2018-06-18T15:57:11.866Z,1.30
2018-06-18T16:02:06.737Z,1.77
2018-06-18T16:07:02.175Z,1.50
2018-06-18T16:11:56.977Z,2.10
2018-06-18T16:16:51.807Z,2.10
2018-06-18T16:21:46.820Z,2.57
2018-06-18T16:26:41.269Z,2.00
2018-06-18T16:31:36.003Z,2.40
2018-06-18T16:36:30.880Z,1.30
2018-06-18T16:41:25.578Z,1.30
2018-06-18T16:46:20.320Z,1.33
2018-06-18T16:51:14.815Z,1.40
2018-06-18T16:56:09.311Z,1.27
2018-06-18T17:01:03.953Z,1.50
2018-06-18T17:05:59.024Z,1.43
2018-06-18T17:10:53.432Z,1.40
2018-06-18T17:15:48.125Z,1.33
2018-06-18T17:20:42.821Z,1.40
2018-06-18T17:25:38.048Z,1.37
2018-06-18T17:30:32.531Z,1.50
2018-06-18T17:35:27.156Z,1.33
2018-06-18T17:40:21.835Z,2.03
2018-06-18T17:45:16.734Z,1.60
2018-06-18T17:50:11.264Z,1.60
2018-06-18T17:55:06.075Z,1.57
2018-06-18T18:00:01.330Z,1.40
2018-06-18T18:04:57.905Z,1.80
2018-06-18T18:09:52.715Z,1.70
2018-06-18T18:14:47.734Z,2.00
2018-06-18T18:19:42.229Z,1.60
2018-06-18T18:24:37.259Z,2.03
2018-06-18T18:29:31.910Z,1.90
2018-06-18T18:34:26.716Z,1.60
2018-06-18T18:39:21.758Z,1.70
2018-06-18T18:44:16.495Z,1.80
2018-06-18T18:49:11.346Z,1.43
2018-06-18T18:54:06.444Z,2.60
2018-06-18T18:59:34.161Z,1.70
2018-06-18T19:05:01.701Z,2.10
2018-06-18T19:10:04.149Z,2.10
2018-06-18T19:14:59.081Z,2.17
2018-06-18T19:20:07.210Z,2.30
2018-06-18T19:25:02.364Z,1.97
2018-06-18T19:29:57.299Z,2.63
2018-06-18T19:34:52.205Z,3.27
2018-06-18T19:39:48.389Z,3.00
2018-06-18T19:44:43.731Z,3.70
2018-06-18T19:49:38.664Z,2.80
2018-06-18T19:54:37.743Z,3.20
2018-06-18T19:59:32.603Z,3.17
2018-06-18T20:04:27.346Z,2.80
2018-06-18T20:09:22.437Z,3.23
2018-06-18T20:14:17.082Z,3.37
2018-06-18T20:19:11.887Z,3.63
2018-06-18T20:24:06.676Z,3.50
2018-06-18T20:29:02.199Z,3.70
2018-06-18T20:33:59.434Z,3.47
2018-06-18T20:38:54.619Z,3.60
2018-06-18T20:44:04.542Z,3.50
2018-06-18T20:48:59.494Z,3.50
2018-06-18T20:53:54.468Z,3.30
2018-06-18T20:58:50.072Z,3.00
2018-06-18T21:03:45.323Z,3.40
2018-06-18T21:08:40.023Z,2.77
2018-06-18T21:13:35.469Z,2.87
2018-06-18T21:18:30.352Z,3.00
2018-06-18T21:23:25.420Z,3.20
2018-06-18T21:28:21.367Z,3.20
2018-06-18T21:33:17.150Z,2.90
2018-06-18T21:38:12.126Z,3.10
2018-06-18T21:43:07.173Z,3.13
2018-06-18T21:48:02.300Z,3.10
2018-06-18T21:52:57.713Z,3.20
2018-06-18T21:57:52.652Z,3.10
2018-06-18T22:02:47.565Z,2.93
2018-06-18T22:07:43.911Z,3.10
2018-06-18T22:12:39.255Z,2.77
2018-06-18T22:17:34.628Z,3.33
2018-06-18T22:22:29.224Z,3.30
2018-06-18T22:27:23.470Z,3.60
2018-06-18T22:32:17.956Z,3.40
2018-06-18T22:37:12.964Z,3.60
2018-06-18T22:42:08.213Z,3.90
2018-06-18T22:47:03.330Z,3.80
2018-06-18T22:51:58.601Z,3.70
2018-06-18T22:56:53.909Z,4.50
2018-06-18T23:01:49.149Z,4.90
2018-06-18T23:06:43.916Z,4.40
2018-06-18T23:11:39.464Z,4.50
2018-06-18T23:16:37.411Z,4.87
2018-06-18T23:21:33.533Z,4.53
2018-06-18T23:26:28.592Z,4.50
2018-06-18T23:31:24.397Z,4.83
2018-06-18T23:36:20.640Z,4.83
2018-06-18T23:41:15.343Z,5.60
2018-06-18T23:46:09.810Z,4.90
2018-06-18T23:51:04.580Z,4.93
2018-06-18T23:55:59.138Z,5.13
